Time;durP1;ratioP1;P1;durP2;ratioP2;P2;SDS_P1;SDS_P2;PMS_P1;PMS_P2;Temp;Humidity;BMP_temperature;BMP_pressure;BME280_temperature;BME280_humidity;BME280_pressure;Samples;Min_cycle;Max_cycle;Signal;HPM_P1;HPM_P2
2022/05/19 00:02:48;;;;;;;17.95;9.18;;;;;;;;;;6249530;28;20412;-51
2022/05/19 00:05:48;;;;;;;17.35;8.20;;;;;;;;;;6260367;28;20132;-50
2022/05/19 00:08:49;;;;;;;16.13;8.18;;;;;;;;;;6262249;28;20432;-51
2022/05/19 00:11:51;;;;;;;16.98;8.25;;;;;;;;;;6259207;28;20180;-50
2022/05/19 00:14:51;;;;;;;18.08;8.85;;;;;;;;;;6262287;28;20481;-50
2022/05/19 00:17:52;;;;;;;15.40;8.52;;;;;;;;;;6260960;28;20155;-52
2022/05/19 00:20:53;;;;;;;21.05;8.65;;;;;;;;;;6263395;28;20045;-51
2022/05/19 00:23:54;;;;;;;16.00;8.57;;;;;;;;;;6262743;28;21213;-48
2022/05/19 00:26:56;;;;;;;16.73;8.25;;;;;;;;;;6258284;28;20463;-52
2022/05/19 00:29:56;;;;;;;17.50;8.18;;;;;;;;;;6261591;28;20143;-53
2022/05/19 00:32:57;;;;;;;19.92;8.52;;;;;;;;;;6262248;28;20051;-52
2022/05/19 00:35:57;;;;;;;15.48;7.70;;;;;;;;;;6257131;28;20158;-50
2022/05/19 00:38:58;;;;;;;20.58;9.32;;;;;;;;;;6261575;28;20411;-50
2022/05/19 00:45:21;;;;;;;17.95;8.30;;;;;;;;;;6261832;28;20770;-50
2022/05/19 00:48:26;;;;;;;22.02;9.63;;;;;;;;;;6257686;28;20037;-50
2022/05/19 00:51:54;;;;;;;16.67;8.60;;;;;;;;;;6254239;28;20128;-49
2022/05/19 00:55:05;;;;;;;21.08;9.10;;;;;;;;;;6254922;28;20053;-49
2022/05/19 00:58:17;;;;;;;21.58;9.68;;;;;;;;;;6257467;28;20068;-50
2022/05/19 01:01:18;;;;;;;19.27;9.55;;;;;;;;;;6257860;28;20059;-50
2022/05/19 01:04:38;;;;;;;16.05;8.30;;;;;;;;;;6253626;28;20045;-49
2022/05/19 01:07:57;;;;;;;18.25;8.30;;;;;;;;;;6262226;28;20044;-50
2022/05/19 01:10:58;;;;;;;18.95;8.85;;;;;;;;;;6263092;28;20052;-51
2022/05/19 01:14:00;;;;;;;17.98;8.73;;;;;;;;;;6264105;28;20063;-50
2022/05/19 01:17:02;;;;;;;16.55;8.70;;;;;;;;;;6264417;28;20748;-54
2022/05/19 01:20:10;;;;;;;21.65;9.57;;;;;;;;;;6261105;28;20066;-59
2022/05/19 01:23:35;;;;;;;19.38;9.43;;;;;;;;;;6250665;28;20818;-53
2022/05/19 01:26:52;;;;;;;21.85;9.80;;;;;;;;;;6256746;28;20135;-49
2022/05/19 01:29:54;;;;;;;23.45;9.98;;;;;;;;;;6255789;28;20133;-49
2022/05/19 01:32:55;;;;;;;19.17;9.43;;;;;;;;;;6261172;28;20057;-57
2022/05/19 01:35:55;;;;;;;20.40;9.25;;;;;;;;;;6262373;28;20076;-53
2022/05/19 01:39:05;;;;;;;20.77;10.35;;;;;;;;;;6254110;28;20474;-49
2022/05/19 01:42:26;;;;;;;18.75;9.80;;;;;;;;;;6257885;28;20472;-49
2022/05/19 01:45:50;;;;;;;21.25;9.90;;;;;;;;;;6263155;28;20075;-50
2022/05/19 01:49:05;;;;;;;19.30;9.57;;;;;;;;;;6254737;28;20057;-50
2022/05/19 01:52:28;;;;;;;21.90;10.20;;;;;;;;;;6262649;28;20041;-50
2022/05/19 01:55:48;;;;;;;20.60;11.02;;;;;;;;;;6253724;28;20088;-49
2022/05/19 01:59:03;;;;;;;22.05;10.60;;;;;;;;;;6257542;28;20045;-57
2022/05/19 02:02:11;;;;;;;19.77;9.52;;;;;;;;;;6263310;28;20049;-50
2022/05/19 02:06:09;;;;;;;19.92;10.00;;;;;;;;;;6261752;28;20041;-49
2022/05/19 02:09:18;;;;;;;22.50;10.05;;;;;;;;;;6233065;28;20068;-50
2022/05/19 02:12:19;;;;;;;23.60;10.43;;;;;;;;;;6234130;28;20727;-61
2022/05/19 02:15:24;;;;;;;20.98;10.10;;;;;;;;;;6260675;28;20049;-54
2022/05/19 02:18:25;;;;;;;21.05;10.07;;;;;;;;;;6257390;28;20099;-51
2022/05/19 02:21:27;;;;;;;19.67;9.43;;;;;;;;;;6258079;28;20496;-50
2022/05/19 02:24:30;;;;;;;22.02;9.68;;;;;;;;;;6261838;28;20529;-49
2022/05/19 02:27:37;;;;;;;19.98;10.05;;;;;;;;;;6263614;28;20179;-50
2022/05/19 02:30:39;;;;;;;20.40;10.23;;;;;;;;;;6259904;28;20076;-49
2022/05/19 02:33:40;;;;;;;18.45;9.43;;;;;;;;;;6257386;28;20119;-53
2022/05/19 02:36:42;;;;;;;22.65;10.20;;;;;;;;;;6262295;28;20054;-49
2022/05/19 02:39:42;;;;;;;25.98;11.20;;;;;;;;;;6258725;28;20052;-49
2022/05/19 02:42:43;;;;;;;19.40;9.90;;;;;;;;;;6265099;28;20069;-50
2022/05/19 02:45:45;;;;;;;17.98;10.18;;;;;;;;;;6261421;28;20080;-56
2022/05/19 02:48:45;;;;;;;20.40;10.48;;;;;;;;;;6258791;28;20051;-50
2022/05/19 02:51:46;;;;;;;20.38;10.30;;;;;;;;;;6264031;28;20084;-54
2022/05/19 02:54:46;;;;;;;25.33;11.15;;;;;;;;;;6259581;28;20456;-50
2022/05/19 02:57:48;;;;;;;19.63;10.80;;;;;;;;;;6262936;28;20041;-51
2022/05/19 03:00:49;;;;;;;23.98;10.73;;;;;;;;;;6257569;28;20056;-54
2022/05/19 03:03:50;;;;;;;20.73;9.43;;;;;;;;;;6261265;28;20501;-50
2022/05/19 03:06:52;;;;;;;20.08;9.80;;;;;;;;;;6262686;28;20141;-50
2022/05/19 03:09:52;;;;;;;24.27;11.00;;;;;;;;;;6254935;28;20049;-51
2022/05/19 03:12:56;;;;;;;21.55;10.02;;;;;;;;;;6255976;28;20131;-60
2022/05/19 03:15:56;;;;;;;23.25;11.10;;;;;;;;;;6259416;28;20064;-54
2022/05/19 03:18:57;;;;;;;21.70;10.55;;;;;;;;;;6263660;28;20614;-50
2022/05/19 03:21:57;;;;;;;23.15;9.57;;;;;;;;;;6259935;28;20156;-56
2022/05/19 03:24:58;;;;;;;21.55;10.27;;;;;;;;;;6260467;28;20530;-49
2022/05/19 03:27:59;;;;;;;19.08;10.00;;;;;;;;;;6261588;28;20091;-55
2022/05/19 03:30:59;;;;;;;19.88;10.13;;;;;;;;;;6263290;28;20544;-55
2022/05/19 03:34:02;;;;;;;23.00;10.20;;;;;;;;;;6261155;28;20412;-58
2022/05/19 03:37:05;;;;;;;19.00;9.93;;;;;;;;;;6262718;28;20045;-58
2022/05/19 03:40:07;;;;;;;16.75;9.30;;;;;;;;;;6256720;28;20048;-51
2022/05/19 03:43:07;;;;;;;18.20;9.48;;;;;;;;;;6256333;28;20049;-50
2022/05/19 03:46:08;;;;;;;21.02;10.15;;;;;;;;;;6259463;28;20401;-52
2022/05/19 03:49:09;;;;;;;20.92;9.77;;;;;;;;;;6253643;28;20080;-54
2022/05/19 03:52:09;;;;;;;19.13;10.35;;;;;;;;;;6255542;28;20531;-50
2022/05/19 03:55:13;;;;;;;23.73;12.40;;;;;;;;;;6258420;28;20140;-54
2022/05/19 03:58:13;;;;;;;21.00;10.90;;;;;;;;;;6262058;28;20041;-54
2022/05/19 04:01:15;;;;;;;20.58;10.98;;;;;;;;;;6258803;28;20634;-51
2022/05/19 04:04:16;;;;;;;25.33;12.20;;;;;;;;;;6258801;28;20131;-55
2022/05/19 04:07:17;;;;;;;29.98;12.27;;;;;;;;;;6261490;28;20526;-51
2022/05/19 04:10:18;;;;;;;32.20;12.07;;;;;;;;;;6260499;28;20045;-50
2022/05/19 04:13:18;;;;;;;21.50;11.80;;;;;;;;;;6252754;28;20560;-53
2022/05/19 04:16:19;;;;;;;23.02;11.50;;;;;;;;;;6254184;28;20186;-59
2022/05/19 04:19:19;;;;;;;24.50;11.95;;;;;;;;;;6260977;28;20135;-49
2022/05/19 04:22:20;;;;;;;28.52;11.38;;;;;;;;;;6259110;28;20055;-49
2022/05/19 04:25:21;;;;;;;24.58;11.43;;;;;;;;;;6249781;28;20136;-54
2022/05/19 04:28:22;;;;;;;26.17;11.95;;;;;;;;;;6256427;28;20057;-51
2022/05/19 04:31:22;;;;;;;26.05;10.75;;;;;;;;;;6257897;28;20167;-52
2022/05/19 04:34:23;;;;;;;25.50;11.35;;;;;;;;;;6261160;28;20049;-51
2022/05/19 04:37:23;;;;;;;21.25;10.48;;;;;;;;;;6261436;28;20127;-50
2022/05/19 04:40:24;;;;;;;22.38;10.95;;;;;;;;;;6260086;28;20049;-53
2022/05/19 04:43:25;;;;;;;20.52;10.45;;;;;;;;;;6261457;28;20198;-52
2022/05/19 04:46:25;;;;;;;21.83;10.38;;;;;;;;;;6262383;28;20053;-51
2022/05/19 04:49:26;;;;;;;22.85;11.13;;;;;;;;;;6262249;28;20431;-49
2022/05/19 04:52:27;;;;;;;28.67;12.35;;;;;;;;;;6264783;28;20036;-50
2022/05/19 04:55:27;;;;;;;20.27;10.20;;;;;;;;;;6266121;28;20135;-50
2022/05/19 04:58:28;;;;;;;20.15;10.02;;;;;;;;;;6257173;28;20496;-50
2022/05/19 05:01:28;;;;;;;19.85;9.60;;;;;;;;;;6262373;28;20664;-52
2022/05/19 05:04:30;;;;;;;15.90;9.32;;;;;;;;;;6260752;28;20041;-50
2022/05/19 05:07:31;;;;;;;21.80;9.63;;;;;;;;;;6262061;28;20048;-51
2022/05/19 05:10:32;;;;;;;16.92;8.43;;;;;;;;;;6263983;28;20469;-50
2022/05/19 05:13:32;;;;;;;17.33;7.95;;;;;;;;;;6259746;28;20408;-51
2022/05/19 05:16:33;;;;;;;15.68;8.00;;;;;;;;;;6267109;28;20140;-49
2022/05/19 05:19:34;;;;;;;15.35;7.57;;;;;;;;;;6264158;28;20444;-52
2022/05/19 05:22:36;;;;;;;15.13;7.95;;;;;;;;;;6256950;28;20045;-54
2022/05/19 05:25:37;;;;;;;12.98;7.93;;;;;;;;;;6261775;28;20092;-51
2022/05/19 05:28:38;;;;;;;15.33;7.40;;;;;;;;;;6262581;28;20064;-50
2022/05/19 05:31:39;;;;;;;16.38;7.18;;;;;;;;;;6259927;28;20136;-50
2022/05/19 05:34:39;;;;;;;16.75;7.88;;;;;;;;;;6265858;28;20385;-50
2022/05/19 05:37:40;;;;;;;14.93;7.15;;;;;;;;;;6256782;28;20120;-52
2022/05/19 05:40:41;;;;;;;20.38;8.38;;;;;;;;;;6258847;28;20042;-50
2022/05/19 05:43:41;;;;;;;17.67;8.25;;;;;;;;;;6262370;28;20128;-50
2022/05/19 05:46:42;;;;;;;17.17;8.65;;;;;;;;;;6262747;28;20435;-49
2022/05/19 05:49:43;;;;;;;18.85;7.95;;;;;;;;;;6261436;28;20171;-49
2022/05/19 05:52:43;;;;;;;19.38;8.02;;;;;;;;;;6262353;28;20053;-50
2022/05/19 05:55:44;;;;;;;16.73;8.10;;;;;;;;;;6262630;28;20045;-53
2022/05/19 05:58:45;;;;;;;19.73;8.45;;;;;;;;;;6263224;28;20041;-51
2022/05/19 06:01:45;;;;;;;17.65;8.63;;;;;;;;;;6262385;28;20049;-51
2022/05/19 06:04:46;;;;;;;20.52;8.07;;;;;;;;;;6262044;28;20106;-62
2022/05/19 06:07:47;;;;;;;18.95;8.23;;;;;;;;;;6273026;28;20059;-50
2022/05/19 06:10:47;;;;;;;19.73;9.10;;;;;;;;;;6255402;28;20048;-51
2022/05/19 06:13:50;;;;;;;17.98;8.02;;;;;;;;;;6263071;28;20128;-50
2022/05/19 06:16:51;;;;;;;18.67;8.55;;;;;;;;;;6262126;28;20077;-52
2022/05/19 06:19:51;;;;;;;18.65;9.63;;;;;;;;;;6259257;28;20037;-50
2022/05/19 06:22:52;;;;;;;18.42;8.95;;;;;;;;;;6263545;28;20037;-50
2022/05/19 06:25:53;;;;;;;20.35;8.63;;;;;;;;;;6260620;28;20124;-58
2022/05/19 06:28:53;;;;;;;18.35;8.43;;;;;;;;;;6261595;28;20401;-50
2022/05/19 06:31:54;;;;;;;22.13;8.82;;;;;;;;;;6260029;28;20166;-51
2022/05/19 06:34:55;;;;;;;16.95;7.00;;;;;;;;;;6259692;28;20045;-52
2022/05/19 06:37:55;;;;;;;20.55;7.60;;;;;;;;;;6258489;28;20072;-50
2022/05/19 06:42:00;;;;;;;18.52;6.05;;;;;;;;;;6263491;28;20132;-50
2022/05/19 06:44:17;;;;;;;12.10;5.72;;;;;;;;;;6260968;28;20096;-50
2022/05/19 06:47:18;;;;;;;10.00;5.30;;;;;;;;;;6263644;28;20456;-50
2022/05/19 06:50:20;;;;;;;14.02;5.30;;;;;;;;;;6262859;28;20044;-49
2022/05/19 06:53:21;;;;;;;15.35;5.50;;;;;;;;;;6258307;28;20080;-51
2022/05/19 06:56:22;;;;;;;20.75;5.85;;;;;;;;;;6261285;28;20106;-49
2022/05/19 06:59:23;;;;;;;10.50;4.70;;;;;;;;;;6255131;28;20124;-51
2022/05/19 07:02:25;;;;;;;10.05;4.88;;;;;;;;;;6262398;28;20149;-50
2022/05/19 07:05:29;;;;;;;14.35;5.22;;;;;;;;;;6258579;28;20510;-55
2022/05/19 07:08:30;;;;;;;19.40;5.05;;;;;;;;;;6261839;28;20512;-49
2022/05/19 07:11:31;;;;;;;9.02;4.43;;;;;;;;;;6260768;28;20045;-50
2022/05/19 07:14:32;;;;;;;11.38;4.80;;;;;;;;;;6262568;28;20037;-52
2022/05/19 07:17:32;;;;;;;9.77;4.33;;;;;;;;;;6259676;28;20531;-50
2022/05/19 07:20:47;;;;;;;8.77;4.00;;;;;;;;;;6262384;28;20049;-50
2022/05/19 07:23:47;;;;;;;10.80;4.05;;;;;;;;;;6260273;28;20130;-50
2022/05/19 07:26:51;;;;;;;9.75;4.05;;;;;;;;;;6264055;28;20048;-50
2022/05/19 07:29:52;;;;;;;11.07;4.75;;;;;;;;;;6254627;28;20056;-51
2022/05/19 07:32:54;;;;;;;13.43;4.78;;;;;;;;;;6258845;28;20088;-50
2022/05/19 07:35:55;;;;;;;9.15;4.32;;;;;;;;;;6252474;28;20529;-51
2022/05/19 07:38:56;;;;;;;9.98;5.50;;;;;;;;;;6259881;28;20136;-53
2022/05/19 07:41:57;;;;;;;7.63;4.43;;;;;;;;;;6259597;28;20052;-51
2022/05/19 07:44:57;;;;;;;8.07;4.65;;;;;;;;;;6264990;28;20201;-53
2022/05/19 07:47:58;;;;;;;12.82;4.97;;;;;;;;;;6261927;28;20033;-52
2022/05/19 07:50:58;;;;;;;11.93;4.65;;;;;;;;;;6259523;28;20204;-52
2022/05/19 07:53:59;;;;;;;9.57;5.03;;;;;;;;;;6263753;28;20068;-51
2022/05/19 07:57:00;;;;;;;14.05;4.57;;;;;;;;;;6260375;28;20757;-49
2022/05/19 08:00:02;;;;;;;12.33;4.83;;;;;;;;;;6256895;28;20052;-51
2022/05/19 08:03:03;;;;;;;9.77;4.38;;;;;;;;;;6259843;28;20099;-51
2022/05/19 08:06:07;;;;;;;10.77;4.33;;;;;;;;;;6257385;28;20068;-52
2022/05/19 08:15:48;;;;;;;9.23;3.75;;;;;;;;;;6245914;28;20075;-50
2022/05/19 08:18:49;;;;;;;6.88;3.45;;;;;;;;;;6258685;28;20774;-50
2022/05/19 08:21:49;;;;;;;7.45;3.38;;;;;;;;;;6264185;28;20041;-51
2022/05/19 08:24:50;;;;;;;7.45;3.03;;;;;;;;;;6261251;28;20477;-54
2022/05/19 08:27:51;;;;;;;7.68;3.47;;;;;;;;;;6257107;28;20476;-53
2022/05/19 08:30:52;;;;;;;8.82;3.13;;;;;;;;;;6259585;28;20076;-56
2022/05/19 08:33:54;;;;;;;9.10;2.72;;;;;;;;;;6260039;28;20411;-51
2022/05/19 08:36:55;;;;;;;7.00;2.67;;;;;;;;;;6251601;28;20084;-57
2022/05/19 08:39:55;;;;;;;8.10;2.67;;;;;;;;;;6261781;28;20053;-54
2022/05/19 08:42:59;;;;;;;6.97;2.97;;;;;;;;;;6255427;28;20124;-52
2022/05/19 08:46:02;;;;;;;8.07;2.72;;;;;;;;;;6259440;28;20103;-51
2022/05/19 08:49:12;;;;;;;6.75;2.55;;;;;;;;;;6258158;28;20045;-58
2022/05/19 08:52:20;;;;;;;7.43;2.95;;;;;;;;;;6254991;28;20533;-50
2022/05/19 08:55:20;;;;;;;7.63;2.60;;;;;;;;;;6250260;28;20049;-50
2022/05/19 08:58:35;;;;;;;6.22;2.55;;;;;;;;;;6256948;28;20130;-50
2022/05/19 09:01:53;;;;;;;5.63;2.72;;;;;;;;;;6258336;28;20049;-51
2022/05/19 09:04:56;;;;;;;6.22;2.58;;;;;;;;;;6259579;28;20046;-53
2022/05/19 09:08:19;;;;;;;5.07;2.70;;;;;;;;;;6258195;28;20083;-52
2022/05/19 09:11:24;;;;;;;4.32;2.40;;;;;;;;;;6259776;28;20245;-50
2022/05/19 09:14:28;;;;;;;8.63;2.80;;;;;;;;;;6255900;28;20036;-50
2022/05/19 09:17:31;;;;;;;7.70;2.78;;;;;;;;;;6258347;28;20385;-50
2022/05/19 09:20:40;;;;;;;5.82;2.55;;;;;;;;;;6261799;28;20044;-50
2022/05/19 09:23:41;;;;;;;5.88;2.47;;;;;;;;;;6255827;28;20054;-51
2022/05/19 09:26:52;;;;;;;6.97;2.43;;;;;;;;;;6256069;28;20102;-51
2022/05/19 09:29:55;;;;;;;6.32;2.60;;;;;;;;;;6262432;28;20041;-59
2022/05/19 09:32:57;;;;;;;4.47;2.35;;;;;;;;;;6267137;28;20522;-51
2022/05/19 09:36:00;;;;;;;4.32;2.40;;;;;;;;;;6258201;28;20064;-53
2022/05/19 09:39:02;;;;;;;5.82;2.33;;;;;;;;;;6261011;28;20381;-52
2022/05/19 09:42:08;;;;;;;4.82;2.03;;;;;;;;;;6257574;28;20056;-54
2022/05/19 09:45:09;;;;;;;6.07;2.33;;;;;;;;;;6263489;28;20131;-56
2022/05/19 09:48:11;;;;;;;7.13;2.40;;;;;;;;;;6260637;28;20053;-60
2022/05/19 09:51:15;;;;;;;5.68;2.38;;;;;;;;;;6264442;28;20052;-57
2022/05/19 09:54:17;;;;;;;7.47;2.47;;;;;;;;;;6262479;28;20132;-50
2022/05/19 09:57:26;;;;;;;6.35;2.50;;;;;;;;;;6260034;28;20136;-53
2022/05/19 10:00:46;;;;;;;7.70;2.60;;;;;;;;;;6261867;28;20064;-58
2022/05/19 10:04:01;;;;;;;6.20;2.83;;;;;;;;;;6260709;28;20084;-52
2022/05/19 10:07:23;;;;;;;5.47;2.58;;;;;;;;;;6259064;28;20056;-58
2022/05/19 10:10:26;;;;;;;8.15;2.70;;;;;;;;;;6255219;28;20056;-50
2022/05/19 10:13:51;;;;;;;5.57;2.70;;;;;;;;;;6262084;28;20463;-51
2022/05/19 10:17:07;;;;;;;6.68;2.90;;;;;;;;;;6259815;28;20494;-56
2022/05/19 10:20:11;;;;;;;8.23;3.00;;;;;;;;;;6261007;28;20049;-53
2022/05/19 10:23:23;;;;;;;6.38;2.95;;;;;;;;;;6265287;28;20049;-53
2022/05/19 10:26:30;;;;;;;6.03;3.03;;;;;;;;;;6262649;28;20147;-57
2022/05/19 10:33:23;;;;;;;7.60;3.40;;;;;;;;;;6263473;28;20053;-51
2022/05/19 10:36:43;;;;;;;7.75;3.47;;;;;;;;;;6255943;28;20073;-53
2022/05/19 10:40:03;;;;;;;7.43;3.60;;;;;;;;;;6264503;28;20063;-52
2022/05/19 10:43:25;;;;;;;7.78;2.90;;;;;;;;;;6254648;28;20045;-51
2022/05/19 10:46:33;;;;;;;6.93;3.50;;;;;;;;;;6260395;28;20052;-55
2022/05/19 10:50:12;;;;;;;10.60;3.63;;;;;;;;;;6261639;28;20045;-56
2022/05/19 10:53:16;;;;;;;7.32;3.10;;;;;;;;;;6247416;28;20703;-54
2022/05/19 10:56:43;;;;;;;7.07;3.10;;;;;;;;;;6257725;28;20056;-54
2022/05/19 11:00:05;;;;;;;7.15;2.80;;;;;;;;;;6257808;28;20487;-51
2022/05/19 11:03:06;;;;;;;5.53;2.85;;;;;;;;;;6257574;28;20076;-51
2022/05/19 11:06:41;;;;;;;6.40;3.53;;;;;;;;;;6261790;28;20106;-56
2022/05/19 11:09:44;;;;;;;5.63;3.10;;;;;;;;;;6261510;28;20510;-52
2022/05/19 11:13:15;;;;;;;8.38;3.13;;;;;;;;;;6263313;28;20049;-51
2022/05/19 11:16:39;;;;;;;7.25;2.92;;;;;;;;;;6260182;28;20064;-53
2022/05/19 11:19:50;;;;;;;6.80;2.90;;;;;;;;;;6254137;28;20045;-52
2022/05/19 11:22:58;;;;;;;7.80;3.25;;;;;;;;;;6262145;28;20060;-53
2022/05/19 11:26:24;;;;;;;6.57;3.55;;;;;;;;;;6253449;28;20514;-52
2022/05/19 11:29:44;;;;;;;10.45;4.30;;;;;;;;;;6260587;28;20131;-55
2022/05/19 11:32:50;;;;;;;9.52;3.90;;;;;;;;;;6261659;28;20059;-53
2022/05/19 11:36:12;;;;;;;6.22;3.40;;;;;;;;;;6260444;28;20150;-51
2022/05/19 11:39:24;;;;;;;8.15;3.42;;;;;;;;;;6261445;28;20053;-56
2022/05/19 11:43:02;;;;;;;7.75;3.30;;;;;;;;;;6256692;28;20073;-52
2022/05/19 11:46:08;;;;;;;5.20;2.50;;;;;;;;;;6255439;28;20048;-53
2022/05/19 11:56:18;;;;;;;8.30;3.13;;;;;;;;;;6256067;28;20091;-53
2022/05/19 11:59:19;;;;;;;5.30;2.65;;;;;;;;;;6258770;28;20052;-52
2022/05/19 12:02:28;;;;;;;10.57;2.85;;;;;;;;;;6255902;28;20048;-54
2022/05/19 12:05:40;;;;;;;7.75;2.70;;;;;;;;;;6253212;28;20179;-56
2022/05/19 12:08:43;;;;;;;5.20;2.40;;;;;;;;;;6254527;28;20071;-56
2022/05/19 12:11:44;;;;;;;5.03;2.40;;;;;;;;;;6256819;28;20497;-61
2022/05/19 12:14:48;;;;;;;5.07;2.60;;;;;;;;;;6259711;28;20088;-58
2022/05/19 12:17:57;;;;;;;6.53;2.50;;;;;;;;;;6261787;28;20056;-54
2022/05/19 12:21:00;;;;;;;5.43;2.33;;;;;;;;;;6265216;28;20076;-55
2022/05/19 12:24:07;;;;;;;7.25;2.60;;;;;;;;;;6259938;28;20056;-57
2022/05/19 12:27:18;;;;;;;5.68;2.42;;;;;;;;;;6255687;28;20053;-61
2022/05/19 12:34:02;;;;;;;6.28;2.50;;;;;;;;;;6259417;28;20053;-49
2022/05/19 12:37:09;;;;;;;4.95;2.40;;;;;;;;;;6259113;28;20052;-53
2022/05/19 12:40:30;;;;;;;5.32;2.17;;;;;;;;;;6256766;28;20548;-55
2022/05/19 12:43:41;;;;;;;6.13;2.40;;;;;;;;;;6255025;28;20160;-53
2022/05/19 12:46:44;;;;;;;5.57;2.65;;;;;;;;;;6254958;28;20072;-53
2022/05/19 12:50:08;;;;;;;5.40;2.40;;;;;;;;;;6262610;28;20136;-53
2022/05/19 12:53:40;;;;;;;6.68;2.45;;;;;;;;;;6259005;28;20060;-65
2022/05/19 12:56:40;;;;;;;8.25;2.70;;;;;;;;;;6258855;28;20048;-54
2022/05/19 12:59:48;;;;;;;5.27;2.47;;;;;;;;;;6252368;28;20547;-55
2022/05/19 13:02:55;;;;;;;7.25;2.60;;;;;;;;;;6253569;28;20041;-54
2022/05/19 13:06:00;;;;;;;8.05;2.75;;;;;;;;;;6261798;28;20115;-55
2022/05/19 13:09:04;;;;;;;7.07;2.80;;;;;;;;;;6257243;28;20064;-52
2022/05/19 13:12:18;;;;;;;6.55;2.60;;;;;;;;;;6264372;28;20132;-54
2022/05/19 13:15:30;;;;;;;3.95;2.25;;;;;;;;;;6261235;28;20053;-60
2022/05/19 13:18:34;;;;;;;7.28;2.70;;;;;;;;;;6265199;28;20654;-58
2022/05/19 13:21:46;;;;;;;6.43;2.47;;;;;;;;;;6258901;28;20451;-60
2022/05/19 13:24:47;;;;;;;5.00;2.33;;;;;;;;;;6265700;28;20052;-62
2022/05/19 13:31:47;;;;;;;6.90;2.58;;;;;;;;;;6245548;28;20064;-58
2022/05/19 13:34:51;;;;;;;7.45;2.60;;;;;;;;;;6258254;28;20060;-52
2022/05/19 13:37:52;;;;;;;5.90;2.30;;;;;;;;;;6259075;28;20065;-55
2022/05/19 13:40:55;;;;;;;4.63;2.60;;;;;;;;;;6251829;28;20063;-52
2022/05/19 13:43:56;;;;;;;5.07;2.25;;;;;;;;;;6262773;28;20077;-56
2022/05/19 13:46:58;;;;;;;4.50;2.50;;;;;;;;;;6262811;28;20136;-52
2022/05/19 13:50:04;;;;;;;5.70;2.03;;;;;;;;;;6264156;28;20654;-57
2022/05/19 13:53:06;;;;;;;6.00;2.40;;;;;;;;;;6257410;28;20059;-53
2022/05/19 13:56:07;;;;;;;6.65;2.35;;;;;;;;;;6257063;28;20073;-53
2022/05/19 13:59:19;;;;;;;5.80;2.53;;;;;;;;;;6263590;28;20037;-54
2022/05/19 14:02:30;;;;;;;6.72;2.50;;;;;;;;;;6250361;28;20130;-51
2022/05/19 14:05:35;;;;;;;4.75;2.08;;;;;;;;;;6258358;28;20103;-57
2022/05/19 14:08:38;;;;;;;5.95;2.20;;;;;;;;;;6252023;28;20139;-60
2022/05/19 14:11:39;;;;;;;3.88;2.00;;;;;;;;;;6249461;28;20048;-54
2022/05/19 14:14:54;;;;;;;3.87;2.27;;;;;;;;;;6253902;28;20045;-61
2022/05/19 14:18:01;;;;;;;4.70;2.30;;;;;;;;;;6248548;28;20063;-64
2022/05/19 14:21:11;;;;;;;4.97;2.20;;;;;;;;;;6251132;28;20057;-62
2022/05/19 14:24:16;;;;;;;5.07;2.20;;;;;;;;;;6254619;28;20045;-56
2022/05/19 14:27:20;;;;;;;6.30;2.10;;;;;;;;;;6252008;28;20519;-59
2022/05/19 14:30:29;;;;;;;5.47;2.05;;;;;;;;;;6255658;28;20083;-55
2022/05/19 14:33:39;;;;;;;4.85;2.30;;;;;;;;;;6254388;28;20055;-59
2022/05/19 14:36:50;;;;;;;4.88;2.08;;;;;;;;;;6252612;28;20114;-50
2022/05/19 14:43:37;;;;;;;3.53;2.05;;;;;;;;;;6253507;28;20049;-54
2022/05/19 14:46:49;;;;;;;4.78;2.00;;;;;;;;;;6252281;28;20127;-58
2022/05/19 14:49:55;;;;;;;5.80;2.03;;;;;;;;;;6252597;28;20059;-57
2022/05/19 14:52:59;;;;;;;5.43;2.47;;;;;;;;;;6248838;28;20076;-60
2022/05/19 14:56:16;;;;;;;5.65;1.92;;;;;;;;;;6249146;28;20080;-59
2022/05/19 14:59:26;;;;;;;6.80;2.40;;;;;;;;;;6250681;28;20072;-63
2022/05/19 15:02:29;;;;;;;5.57;2.25;;;;;;;;;;6253514;28;20053;-63
2022/05/19 15:05:32;;;;;;;5.35;1.92;;;;;;;;;;6255198;28;20053;-56
2022/05/19 15:08:32;;;;;;;7.13;2.40;;;;;;;;;;6254070;28;20117;-52
2022/05/19 15:11:34;;;;;;;3.72;1.90;;;;;;;;;;6254271;28;20044;-52
2022/05/19 15:14:35;;;;;;;3.90;2.05;;;;;;;;;;6253178;28;20056;-52
2022/05/19 15:17:36;;;;;;;5.87;2.20;;;;;;;;;;6249771;28;20496;-54
2022/05/19 15:20:36;;;;;;;5.57;2.35;;;;;;;;;;6251086;28;20041;-55
2022/05/19 15:23:37;;;;;;;6.20;2.25;;;;;;;;;;6252467;28;20064;-63
2022/05/19 15:26:38;;;;;;;5.80;2.40;;;;;;;;;;6248551;28;20806;-51
2022/05/19 15:29:39;;;;;;;4.60;2.23;;;;;;;;;;6250632;28;20049;-55
2022/05/19 15:32:40;;;;;;;5.68;2.20;;;;;;;;;;6252153;28;20044;-55
2022/05/19 15:35:43;;;;;;;5.10;2.30;;;;;;;;;;6249399;28;20628;-61
2022/05/19 15:38:44;;;;;;;5.93;2.30;;;;;;;;;;6251765;28;20471;-58
2022/05/19 15:41:45;;;;;;;7.40;2.50;;;;;;;;;;6254474;28;20052;-55
2022/05/19 15:44:45;;;;;;;6.87;2.20;;;;;;;;;;6251525;28;20116;-56
2022/05/19 15:47:52;;;;;;;5.03;2.00;;;;;;;;;;6254079;28;20049;-61
2022/05/19 15:50:53;;;;;;;5.57;2.00;;;;;;;;;;6254044;28;20361;-58
2022/05/19 15:53:53;;;;;;;8.98;2.10;;;;;;;;;;6254938;28;20087;-60
2022/05/19 15:56:54;;;;;;;4.23;2.43;;;;;;;;;;6254535;28;20049;-60
2022/05/19 15:59:55;;;;;;;4.60;2.00;;;;;;;;;;6257035;28;20064;-58
2022/05/19 16:02:58;;;;;;;5.13;1.90;;;;;;;;;;6256460;28;20932;-58
2022/05/19 16:06:01;;;;;;;5.70;2.13;;;;;;;;;;6254540;28;20091;-55
2022/05/19 16:09:02;;;;;;;4.50;2.00;;;;;;;;;;6254470;28;20584;-59
2022/05/19 16:12:04;;;;;;;3.28;2.03;;;;;;;;;;6256769;28;20060;-55
2022/05/19 16:15:07;;;;;;;5.72;2.35;;;;;;;;;;6251981;28;20060;-56
2022/05/19 16:18:09;;;;;;;5.38;2.38;;;;;;;;;;6252215;28;20040;-57
2022/05/19 16:21:12;;;;;;;;;;;;;;;;;;6256343;28;20387;-61
2022/05/19 16:24:13;;;;;;;5.93;2.10;;;;;;;;;;6255499;28;20401;-57
2022/05/19 16:27:14;;;;;;;4.60;1.70;;;;;;;;;;6251971;28;20063;-63
2022/05/19 16:30:16;;;;;;;4.67;2.00;;;;;;;;;;6255179;28;20053;-54
2022/05/19 16:33:17;;;;;;;10.82;4.38;;;;;;;;;;6255522;28;20301;-61
2022/05/19 16:36:18;;;;;;;4.47;2.15;;;;;;;;;;6253581;28;20052;-61
2022/05/19 16:39:19;;;;;;;5.35;2.55;;;;;;;;;;6255667;28;20409;-61
2022/05/19 16:42:19;;;;;;;9.38;2.60;;;;;;;;;;6259520;28;20052;-61
2022/05/19 16:45:23;;;;;;;7.07;2.50;;;;;;;;;;6260112;28;20057;-59
2022/05/19 16:48:24;;;;;;;4.90;2.63;;;;;;;;;;6257626;28;20095;-61
2022/05/19 16:51:25;;;;;;;5.07;2.40;;;;;;;;;;6257116;28;20053;-62
2022/05/19 16:57:55;;;;;;;6.50;2.53;;;;;;;;;;6255532;28;20049;-66
2022/05/19 17:01:03;;;;;;;4.90;2.50;;;;;;;;;;6256593;28;20087;-60
2022/05/19 17:04:03;;;;;;;6.70;2.20;;;;;;;;;;6259791;28;20055;-65
2022/05/19 17:07:05;;;;;;;9.00;2.30;;;;;;;;;;6257498;28;20558;-58
2022/05/19 17:10:13;;;;;;;5.55;2.10;;;;;;;;;;6256048;28;20302;-66
2022/05/19 17:13:23;;;;;;;5.82;2.28;;;;;;;;;;6255988;28;20081;-70
2022/05/19 17:16:26;;;;;;;6.05;2.13;;;;;;;;;;6252948;28;20064;-58
2022/05/19 17:19:26;;;;;;;4.65;1.92;;;;;;;;;;6255662;28;20700;-58
2022/05/19 17:22:28;;;;;;;4.70;2.10;;;;;;;;;;6256698;28;20144;-63
2022/05/19 17:25:31;;;;;;;6.20;2.22;;;;;;;;;;6254843;28;20144;-59
2022/05/19 17:28:32;;;;;;;5.25;1.90;;;;;;;;;;6256259;28;20056;-56
2022/05/19 17:31:32;;;;;;;4.50;2.00;;;;;;;;;;6256455;28;20052;-56
2022/05/19 17:34:34;;;;;;;5.33;2.23;;;;;;;;;;6257241;28;20053;-55
2022/05/19 17:37:34;;;;;;;;;;;;;;;;;;6255389;28;20817;-64
2022/05/19 17:40:36;;;;;;;8.90;2.53;;;;;;;;;;6257862;28;20055;-58
2022/05/19 17:43:39;;;;;;;6.47;2.78;;;;;;;;;;6259444;28;20492;-57
2022/05/19 17:46:39;;;;;;;7.95;2.08;;;;;;;;;;6256712;28;20060;-57
2022/05/19 17:49:40;;;;;;;5.27;2.60;;;;;;;;;;6258449;28;20408;-58
2022/05/19 17:52:41;;;;;;;10.17;3.30;;;;;;;;;;6257696;28;20105;-56
2022/05/19 17:55:47;;;;;;;9.10;2.80;;;;;;;;;;6257066;28;20091;-62
2022/05/19 17:58:48;;;;;;;85.53;7.40;;;;;;;;;;6256839;28;20041;-73
2022/05/19 18:01:49;;;;;;;11.90;3.20;;;;;;;;;;6257923;28;20045;-67
2022/05/19 18:04:49;;;;;;;11.83;3.10;;;;;;;;;;6259244;28;20063;-67
2022/05/19 18:07:50;;;;;;;44.43;5.10;;;;;;;;;;6257426;28;20110;-60
2022/05/19 18:10:51;;;;;;;14.05;2.90;;;;;;;;;;6258227;28;20147;-67
2022/05/19 18:13:52;;;;;;;6.90;2.70;;;;;;;;;;6259204;28;20052;-65
2022/05/19 18:20:13;;;;;;;16.35;3.20;;;;;;;;;;6253116;28;20072;-66
2022/05/19 18:23:14;;;;;;;9.88;2.92;;;;;;;;;;6256360;28;20053;-65
2022/05/19 18:26:19;;;;;;;7.90;3.43;;;;;;;;;;6255159;28;20057;-64
2022/05/19 18:29:20;;;;;;;8.27;3.00;;;;;;;;;;6256887;28;20163;-60
2022/05/19 18:32:21;;;;;;;8.63;2.83;;;;;;;;;;6255634;28;20072;-62
2022/05/19 18:35:22;;;;;;;16.63;4.13;;;;;;;;;;6257021;28;20036;-67
2022/05/19 18:38:23;;;;;;;8.13;2.83;;;;;;;;;;6254643;28;20049;-65
2022/05/19 18:44:57;;;;;;;9.32;2.85;;;;;;;;;;6253160;28;20149;-68
2022/05/19 18:47:59;;;;;;;10.02;3.10;;;;;;;;;;6251753;28;20063;-67
2022/05/19 18:51:00;;;;;;;9.48;3.25;;;;;;;;;;6252052;28;20152;-64
2022/05/19 18:54:01;;;;;;;12.53;3.73;;;;;;;;;;6251044;28;20405;-63
2022/05/19 18:57:02;;;;;;;19.65;4.65;;;;;;;;;;6251965;28;20056;-58
2022/05/19 19:00:04;;;;;;;15.83;4.30;;;;;;;;;;6252627;28;20052;-59
2022/05/19 19:03:05;;;;;;;14.45;3.90;;;;;;;;;;6254541;28;20488;-61